createdAt,value
2022-08-30T00:00:00.649Z,23.76
2022-08-30T00:00:37.200Z,23.75
2022-08-30T00:01:14.346Z,23.75
2022-08-30T00:01:50.509Z,23.74
2022-08-30T00:02:26.630Z,23.73
2022-08-30T00:03:03.011Z,23.73
2022-08-30T00:03:39.036Z,23.72
2022-08-30T00:04:15.427Z,23.72
2022-08-30T00:04:51.035Z,23.72
2022-08-30T00:05:26.585Z,23.72
2022-08-30T00:06:03.139Z,23.73
2022-08-30T00:06:39.787Z,23.71
2022-08-30T00:07:16.389Z,23.71
2022-08-30T00:07:52.867Z,23.71
2022-08-30T00:08:29.274Z,23.70
2022-08-30T00:09:05.771Z,23.70
2022-08-30T00:09:43.929Z,23.69
2022-08-30T00:10:21.644Z,23.69
2022-08-30T00:10:58.952Z,23.70
2022-08-30T00:11:35.990Z,23.70
2022-08-30T00:12:17.426Z,23.70
2022-08-30T00:12:59.857Z,23.70
2022-08-30T00:13:40.142Z,23.71
2022-08-30T00:14:23.436Z,23.73
2022-08-30T00:15:03.674Z,23.74
2022-08-30T00:15:38.916Z,23.75
2022-08-30T00:16:15.317Z,23.76
2022-08-30T00:16:51.386Z,23.77
2022-08-30T00:17:28.285Z,23.77
2022-08-30T00:18:04.945Z,23.76
2022-08-30T00:18:41.600Z,23.75
2022-08-30T00:19:18.002Z,23.75
2022-08-30T00:19:54.509Z,23.74
2022-08-30T00:20:30.900Z,23.74
2022-08-30T00:21:06.719Z,23.72
2022-08-30T00:21:44.194Z,23.72
2022-08-30T00:22:20.252Z,23.71
2022-08-30T00:22:58.197Z,23.70
2022-08-30T00:23:34.364Z,23.68
2022-08-30T00:24:10.345Z,23.68
2022-08-30T00:24:46.844Z,23.66
2022-08-30T00:25:23.386Z,23.65
2022-08-30T00:25:58.762Z,23.65
2022-08-30T00:26:34.801Z,23.64
2022-08-30T00:27:10.825Z,23.64
2022-08-30T00:27:47.654Z,23.64
2022-08-30T00:28:25.097Z,23.63
2022-08-30T00:29:01.855Z,23.65
2022-08-30T00:29:37.296Z,23.64
2022-08-30T00:30:13.777Z,23.65
2022-08-30T00:30:50.686Z,23.66
2022-08-30T00:31:27.954Z,23.65
2022-08-30T00:32:04.957Z,23.66
2022-08-30T00:32:45.465Z,23.68
2022-08-30T00:33:27.390Z,23.66
2022-08-30T00:34:10.639Z,23.66
2022-08-30T00:34:51.406Z,23.66
2022-08-30T00:35:32.770Z,23.67
2022-08-30T00:36:16.069Z,23.66
2022-08-30T00:36:57.426Z,23.67
2022-08-30T00:37:39.035Z,23.66
2022-08-30T00:38:20.485Z,23.68
2022-08-30T00:39:01.713Z,23.67
2022-08-30T00:39:46.447Z,23.67
2022-08-30T00:40:25.576Z,23.67
2022-08-30T00:41:05.173Z,23.66
2022-08-30T00:41:41.702Z,23.67
2022-08-30T00:42:18.696Z,23.65
2022-08-30T00:42:58.157Z,23.66
2022-08-30T00:43:36.738Z,23.67
2022-08-30T00:44:12.894Z,23.66
2022-08-30T00:44:49.515Z,23.66
2022-08-30T00:45:25.469Z,23.66
2022-08-30T00:46:02.335Z,23.66
2022-08-30T00:46:39.053Z,23.66
2022-08-30T00:47:14.987Z,23.66
2022-08-30T00:47:51.010Z,23.65
2022-08-30T00:48:27.316Z,23.65
2022-08-30T00:49:03.693Z,23.66
2022-08-30T00:49:39.846Z,23.64
2022-08-30T00:50:19.221Z,23.66
2022-08-30T00:50:55.537Z,23.64
2022-08-30T00:51:32.551Z,23.65
2022-08-30T00:52:10.914Z,23.64
2022-08-30T00:52:54.543Z,23.65
2022-08-30T00:53:34.070Z,23.66
2022-08-30T00:54:16.208Z,23.65
2022-08-30T00:54:54.253Z,23.65
2022-08-30T00:55:30.456Z,23.65
2022-08-30T00:56:06.145Z,23.64
2022-08-30T00:56:43.035Z,23.65
2022-08-30T00:57:19.596Z,23.64
2022-08-30T00:57:56.651Z,23.65
2022-08-30T00:58:33.614Z,23.64
2022-08-30T00:59:10.421Z,23.64
2022-08-30T00:59:47.001Z,23.64
2022-08-30T01:00:23.788Z,23.63
2022-08-30T01:00:59.724Z,23.64
2022-08-30T01:01:36.975Z,23.64
2022-08-30T01:02:14.536Z,23.63
2022-08-30T01:02:51.711Z,23.62
2022-08-30T01:03:28.275Z,23.61
2022-08-30T01:04:04.915Z,23.61
2022-08-30T01:04:41.643Z,23.60
2022-08-30T01:05:18.679Z,23.61
2022-08-30T01:05:54.557Z,23.61
2022-08-30T01:06:32.470Z,23.61
2022-08-30T01:07:08.541Z,23.64
2022-08-30T01:07:43.990Z,23.65
2022-08-30T01:08:20.903Z,23.68
2022-08-30T01:09:02.356Z,23.70
2022-08-30T01:09:42.579Z,23.72
2022-08-30T01:10:24.752Z,23.74
2022-08-30T01:11:06.432Z,23.76
2022-08-30T01:11:46.607Z,23.77
2022-08-30T01:12:27.905Z,23.77
2022-08-30T01:13:06.210Z,23.78
2022-08-30T01:13:46.599Z,23.78
2022-08-30T01:14:25.923Z,23.76
2022-08-30T01:15:01.280Z,23.75
2022-08-30T01:15:38.095Z,23.73
2022-08-30T01:16:14.565Z,23.74
2022-08-30T01:16:49.984Z,23.73
2022-08-30T01:17:26.932Z,23.73
2022-08-30T01:18:03.978Z,23.72
2022-08-30T01:18:43.190Z,23.72
2022-08-30T01:19:58.562Z,23.71
2022-08-30T01:20:59.533Z,23.71
2022-08-30T01:21:40.773Z,23.70
2022-08-30T01:22:26.286Z,23.70
2022-08-30T01:23:06.439Z,23.70
2022-08-30T01:23:53.125Z,23.68
2022-08-30T01:25:46.671Z,23.68
2022-08-30T01:29:26.242Z,23.75
2022-08-30T01:31:31.200Z,23.80
2022-08-30T01:32:21.119Z,23.82
2022-08-30T01:33:05.841Z,23.83
2022-08-30T01:33:50.533Z,23.85
2022-08-30T01:34:33.802Z,23.85
2022-08-30T01:35:16.816Z,23.86
2022-08-30T01:36:16.250Z,23.84
2022-08-30T01:37:03.598Z,23.82
2022-08-30T01:37:48.665Z,23.81
2022-08-30T01:39:31.920Z,23.80
2022-08-30T01:40:28.096Z,23.79
2022-08-30T01:42:10.423Z,23.79
2022-08-30T01:43:03.065Z,23.78
2022-08-30T01:43:57.142Z,23.77
2022-08-30T01:44:53.250Z,23.76
2022-08-30T01:45:44.562Z,23.76
2022-08-30T01:46:29.057Z,23.76
2022-08-30T01:47:12.961Z,23.75
2022-08-30T01:47:56.555Z,23.77
2022-08-30T01:48:52.023Z,23.76
2022-08-30T01:49:36.300Z,23.78
2022-08-30T01:50:19.618Z,23.79
2022-08-30T01:51:01.435Z,23.76
2022-08-30T01:51:47.812Z,23.76
2022-08-30T01:52:31.898Z,23.74
2022-08-30T01:53:18.391Z,23.75
2022-08-30T01:54:05.959Z,23.74
2022-08-30T01:54:53.530Z,23.73
2022-08-30T01:57:53.223Z,23.78
2022-08-30T01:58:49.685Z,23.81
2022-08-30T01:59:42.335Z,23.82
2022-08-30T02:03:22.779Z,23.85
2022-08-30T02:04:21.842Z,23.82
2022-08-30T02:05:07.142Z,23.78
2022-08-30T02:05:52.473Z,23.77
2022-08-30T02:06:35.049Z,23.74
2022-08-30T02:07:19.333Z,23.74
2022-08-30T02:08:03.350Z,23.73
2022-08-30T02:08:45.462Z,23.72
2022-08-30T02:09:32.973Z,23.69
2022-08-30T02:10:21.576Z,23.69
2022-08-30T02:11:11.212Z,23.69
2022-08-30T02:11:55.582Z,23.67
2022-08-30T02:12:56.621Z,23.66
2022-08-30T02:13:47.896Z,23.65
2022-08-30T02:14:31.249Z,23.64
2022-08-30T02:15:15.413Z,23.63
2022-08-30T02:16:00.669Z,23.62
2022-08-30T02:16:43.654Z,23.63
2022-08-30T02:17:26.936Z,23.62
2022-08-30T02:18:14.106Z,23.64
2022-08-30T02:20:05.655Z,23.63
2022-08-30T02:20:58.037Z,23.62
2022-08-30T02:21:57.173Z,23.63
2022-08-30T02:22:49.224Z,23.63
2022-08-30T02:23:35.505Z,23.62
2022-08-30T02:24:19.737Z,23.61
2022-08-30T02:25:05.065Z,23.63
2022-08-30T02:25:49.608Z,23.62
2022-08-30T02:26:38.664Z,23.62
2022-08-30T02:27:19.490Z,23.63
2022-08-30T02:28:06.060Z,23.62
2022-08-30T02:29:01.202Z,23.62
2022-08-30T02:32:36.388Z,23.61
2022-08-30T02:34:28.838Z,23.60
2022-08-30T02:35:36.127Z,23.58
2022-08-30T02:36:26.325Z,23.58
2022-08-30T02:37:26.451Z,23.57
2022-08-30T02:38:16.881Z,23.57
2022-08-30T02:39:03.936Z,23.55
2022-08-30T02:39:49.462Z,23.55
2022-08-30T02:40:34.107Z,23.54
2022-08-30T02:41:21.303Z,23.55
2022-08-30T02:42:06.181Z,23.56
2022-08-30T02:42:52.236Z,23.56
2022-08-30T02:43:35.015Z,23.57
2022-08-30T02:44:18.474Z,23.57
2022-08-30T02:45:06.912Z,23.58
2022-08-30T02:46:07.694Z,23.59
2022-08-30T02:47:03.595Z,23.61
2022-08-30T02:47:55.217Z,23.61
2022-08-30T02:48:47.473Z,23.60
2022-08-30T02:49:49.390Z,23.60
2022-08-30T02:50:32.340Z,23.60
2022-08-30T02:51:15.265Z,23.61
2022-08-30T02:51:58.598Z,23.64
2022-08-30T02:55:25.574Z,23.65
2022-08-30T02:56:14.285Z,23.63
2022-08-30T02:57:20.386Z,23.62
2022-08-30T02:58:53.057Z,23.61
2022-08-30T02:59:45.004Z,23.61
2022-08-30T03:00:34.893Z,23.60
2022-08-30T03:01:29.247Z,23.60
2022-08-30T03:02:12.294Z,23.59
2022-08-30T03:02:58.253Z,23.58
2022-08-30T03:03:44.867Z,23.58
2022-08-30T03:04:30.744Z,23.58
2022-08-30T03:05:15.402Z,23.57
2022-08-30T03:05:59.735Z,23.56
2022-08-30T03:06:45.114Z,23.55
2022-08-30T03:07:32.722Z,23.56
2022-08-30T03:08:16.892Z,23.56
2022-08-30T03:09:13.861Z,23.57
2022-08-30T03:10:09.925Z,23.57
2022-08-30T03:11:05.608Z,23.59
2022-08-30T03:14:58.195Z,23.68
2022-08-30T03:16:06.775Z,23.71
2022-08-30T03:17:00.009Z,23.72
2022-08-30T03:17:50.124Z,23.74
2022-08-30T03:18:45.454Z,23.73
2022-08-30T03:19:40.203Z,23.74
2022-08-30T03:20:34.472Z,23.75
2022-08-30T03:21:18.035Z,23.76
2022-08-30T03:22:02.412Z,23.73
2022-08-30T03:22:47.296Z,23.71
2022-08-30T03:23:29.641Z,23.69
2022-08-30T03:24:15.802Z,23.67
2022-08-30T03:25:02.113Z,23.66
2022-08-30T03:25:48.626Z,23.63
2022-08-30T03:26:38.274Z,23.62
2022-08-30T03:27:24.892Z,23.60
2022-08-30T03:28:24.893Z,23.59
2022-08-30T03:29:16.236Z,23.58
2022-08-30T03:30:01.962Z,23.57
2022-08-30T03:30:45.822Z,23.57
2022-08-30T03:31:29.654Z,23.58
2022-08-30T03:32:13.348Z,23.58
2022-08-30T03:32:57.699Z,23.60
2022-08-30T03:33:37.674Z,23.61
2022-08-30T03:34:31.016Z,23.61
2022-08-30T03:35:18.047Z,23.62
2022-08-30T03:36:05.223Z,23.61
2022-08-30T03:36:56.959Z,23.63
2022-08-30T03:37:56.193Z,23.62
2022-08-30T03:40:39.806Z,23.63
2022-08-30T03:41:41.693Z,23.63
2022-08-30T03:42:59.825Z,23.64
2022-08-30T03:44:48.811Z,23.64
2022-08-30T03:45:42.881Z,23.63
2022-08-30T03:46:38.577Z,23.64
2022-08-30T03:47:37.470Z,23.64
2022-08-30T03:48:23.526Z,23.64
2022-08-30T03:49:08.878Z,23.63
2022-08-30T03:49:52.144Z,23.64
2022-08-30T03:51:34.314Z,23.66
2022-08-30T03:52:42.534Z,23.68
2022-08-30T03:53:29.827Z,23.67
2022-08-30T03:54:55.773Z,23.67
2022-08-30T03:55:51.975Z,23.67
2022-08-30T03:56:47.314Z,23.68
2022-08-30T03:57:32.198Z,23.67
2022-08-30T03:58:19.294Z,23.69
2022-08-30T03:59:02.953Z,23.70
2022-08-30T03:59:45.729Z,23.72
2022-08-30T04:00:30.593Z,23.75
2022-08-30T04:01:11.218Z,23.76
2022-08-30T04:01:57.591Z,23.76
2022-08-30T04:02:44.027Z,23.78
2022-08-30T04:03:34.746Z,23.75
2022-08-30T04:04:26.253Z,23.71
2022-08-30T04:05:18.992Z,23.70
2022-08-30T04:06:06.070Z,23.69
2022-08-30T04:06:49.257Z,23.67
2022-08-30T04:07:40.424Z,23.65
2022-08-30T04:08:43.787Z,23.63
2022-08-30T04:09:31.975Z,23.63
2022-08-30T04:10:18.255Z,23.62
2022-08-30T04:11:06.565Z,23.62
2022-08-30T04:13:02.828Z,23.60
2022-08-30T04:13:48.690Z,23.60
2022-08-30T04:14:47.861Z,23.58
2022-08-30T04:15:32.625Z,23.57
2022-08-30T04:16:15.612Z,23.56
2022-08-30T04:16:59.814Z,23.54
2022-08-30T04:17:40.771Z,23.55
2022-08-30T04:18:27.226Z,23.54
2022-08-30T04:19:13.404Z,23.54
2022-08-30T04:19:58.720Z,23.53
2022-08-30T04:20:45.695Z,23.53
2022-08-30T04:21:31.490Z,23.53
2022-08-30T04:22:18.338Z,23.52
2022-08-30T04:23:01.060Z,23.52
2022-08-30T04:23:46.358Z,23.53
2022-08-30T04:24:31.482Z,23.52
2022-08-30T04:25:17.163Z,23.53
2022-08-30T04:26:01.336Z,23.52
2022-08-30T04:26:44.650Z,23.52
2022-08-30T04:27:26.734Z,23.52
2022-08-30T04:28:11.328Z,23.54
2022-08-30T04:28:56.399Z,23.55
2022-08-30T04:29:41.627Z,23.56
2022-08-30T04:30:29.406Z,23.56
2022-08-30T04:31:15.278Z,23.56
2022-08-30T04:32:01.321Z,23.56
2022-08-30T04:32:45.594Z,23.57
2022-08-30T04:33:32.359Z,23.57
2022-08-30T04:34:19.352Z,23.55
2022-08-30T04:35:04.487Z,23.54
2022-08-30T04:35:50.342Z,23.54
2022-08-30T04:36:35.105Z,23.53
2022-08-30T04:37:19.127Z,23.53
2022-08-30T04:38:22.351Z,23.53
2022-08-30T04:39:04.923Z,23.52
2022-08-30T04:39:49.526Z,23.53
2022-08-30T04:40:33.087Z,23.53
2022-08-30T04:41:18.255Z,23.53
2022-08-30T04:42:03.177Z,23.53
2022-08-30T04:42:48.836Z,23.53
2022-08-30T04:43:31.896Z,23.52
2022-08-30T04:44:19.538Z,23.52
2022-08-30T04:45:02.819Z,23.52
2022-08-30T04:45:49.979Z,23.49
2022-08-30T04:46:34.211Z,23.49
2022-08-30T04:47:18.627Z,23.49
2022-08-30T04:48:05.125Z,23.49
2022-08-30T04:48:46.715Z,23.48
2022-08-30T04:49:30.764Z,23.49
2022-08-30T04:50:18.168Z,23.46
2022-08-30T04:51:04.793Z,23.46
2022-08-30T04:51:50.299Z,23.45
2022-08-30T04:52:35.957Z,23.44
2022-08-30T04:53:21.537Z,23.43
2022-08-30T04:54:06.674Z,23.44
2022-08-30T04:54:51.857Z,23.45
2022-08-30T04:55:37.210Z,23.45
2022-08-30T04:56:25.099Z,23.47
2022-08-30T04:57:13.617Z,23.45
2022-08-30T04:58:00.722Z,23.45
2022-08-30T04:58:45.407Z,23.45
2022-08-30T04:59:35.756Z,23.46
2022-08-30T05:00:20.690Z,23.45
2022-08-30T05:01:08.943Z,23.45
2022-08-30T05:01:54.867Z,23.45
2022-08-30T05:02:40.494Z,23.44
2022-08-30T05:03:25.298Z,23.45
2022-08-30T05:04:15.365Z,23.43
2022-08-30T05:05:07.437Z,23.43
2022-08-30T05:05:52.637Z,23.42
2022-08-30T05:06:41.063Z,23.41
2022-08-30T05:07:30.142Z,23.41
2022-08-30T05:08:12.188Z,23.40
2022-08-30T05:08:59.658Z,23.41
2022-08-30T05:09:44.945Z,23.40
2022-08-30T05:10:30.642Z,23.41
2022-08-30T05:11:15.394Z,23.40
2022-08-30T05:12:01.803Z,23.39
2022-08-30T05:12:47.761Z,23.40
2022-08-30T05:13:37.688Z,23.38
2022-08-30T05:14:24.042Z,23.38
2022-08-30T05:15:12.947Z,23.37
2022-08-30T05:15:59.333Z,23.36
2022-08-30T05:16:44.142Z,23.35
2022-08-30T05:17:31.325Z,23.35
2022-08-30T05:18:16.559Z,23.35
2022-08-30T05:18:58.585Z,23.35
2022-08-30T05:19:44.570Z,23.36
2022-08-30T05:20:30.349Z,23.35
2022-08-30T05:21:14.191Z,23.37
2022-08-30T05:21:58.460Z,23.36
2022-08-30T05:22:40.927Z,23.37
2022-08-30T05:23:25.738Z,23.37
2022-08-30T05:24:07.047Z,23.37
2022-08-30T05:24:52.231Z,23.37
2022-08-30T05:25:38.081Z,23.38
2022-08-30T05:26:25.106Z,23.38
2022-08-30T05:27:09.178Z,23.38
2022-08-30T05:27:53.581Z,23.38
2022-08-30T05:28:37.742Z,23.38
2022-08-30T05:29:19.156Z,23.39
2022-08-30T05:30:05.572Z,23.40
2022-08-30T05:30:53.076Z,23.38
2022-08-30T05:31:38.482Z,23.39
2022-08-30T05:32:24.238Z,23.38
2022-08-30T05:33:06.766Z,23.38
2022-08-30T05:33:51.290Z,23.38
2022-08-30T05:34:43.544Z,23.36
2022-08-30T05:35:29.819Z,23.35
2022-08-30T05:36:14.436Z,23.36
2022-08-30T05:37:01.847Z,23.34
2022-08-30T05:37:46.869Z,23.33
2022-08-30T05:38:32.124Z,23.34
2022-08-30T05:39:18.182Z,23.34
2022-08-30T05:40:11.209Z,23.34
2022-08-30T05:40:53.822Z,23.33
2022-08-30T05:41:39.342Z,23.31
2022-08-30T05:42:22.661Z,23.32
2022-08-30T05:43:07.477Z,23.31
2022-08-30T05:43:51.841Z,23.31
2022-08-30T05:44:36.082Z,23.31
2022-08-30T05:45:16.999Z,23.31
2022-08-30T05:46:03.347Z,23.31
2022-08-30T05:46:47.760Z,23.32
2022-08-30T05:47:32.160Z,23.33
2022-08-30T05:48:15.327Z,23.33
2022-08-30T05:49:00.577Z,23.33
2022-08-30T05:49:46.773Z,23.33
2022-08-30T05:50:28.687Z,23.34
2022-08-30T05:51:13.605Z,23.33
2022-08-30T05:51:57.587Z,23.33
2022-08-30T05:52:40.457Z,23.34
2022-08-30T05:53:26.962Z,23.34
2022-08-30T05:54:12.701Z,23.33
2022-08-30T05:55:00.190Z,23.34
2022-08-30T05:55:51.363Z,23.33
2022-08-30T05:56:36.739Z,23.32
2022-08-30T05:57:22.756Z,23.32
2022-08-30T05:58:10.516Z,23.32
2022-08-30T05:58:57.733Z,23.32
2022-08-30T05:59:42.744Z,23.32
2022-08-30T06:00:26.516Z,23.31
2022-08-30T06:01:07.232Z,23.32
2022-08-30T06:01:51.181Z,23.31
2022-08-30T06:02:39.580Z,23.33
2022-08-30T06:03:26.056Z,23.32
2022-08-30T06:04:12.008Z,23.31
2022-08-30T06:04:56.738Z,23.30
2022-08-30T06:05:42.192Z,23.31
2022-08-30T06:06:24.219Z,23.29
2022-08-30T06:07:08.675Z,23.30
2022-08-30T06:07:54.646Z,23.29
2022-08-30T06:08:41.889Z,23.29
2022-08-30T06:09:25.786Z,23.30
2022-08-30T06:10:13.385Z,23.30
2022-08-30T06:10:58.744Z,23.30
2022-08-30T06:11:42.769Z,23.30
2022-08-30T06:12:31.781Z,23.33
2022-08-30T06:13:17.958Z,23.35
2022-08-30T06:14:11.941Z,23.36
2022-08-30T06:14:57.566Z,23.37
2022-08-30T06:15:42.962Z,23.37
2022-08-30T06:16:31.952Z,23.38
2022-08-30T06:17:15.825Z,23.38
2022-08-30T06:17:58.903Z,23.38
2022-08-30T06:18:49.974Z,23.39
2022-08-30T06:20:06.819Z,23.38
2022-08-30T06:20:56.234Z,23.38
2022-08-30T06:21:49.934Z,23.39
2022-08-30T06:22:36.116Z,23.38
2022-08-30T06:24:56.003Z,23.37
2022-08-30T06:25:41.294Z,23.37
2022-08-30T06:26:27.535Z,23.39
2022-08-30T06:27:13.873Z,23.38
2022-08-30T06:27:57.896Z,23.37
2022-08-30T06:28:43.140Z,23.39
2022-08-30T06:29:33.112Z,23.40
2022-08-30T06:31:12.772Z,23.44
2022-08-30T06:31:59.154Z,23.42
2022-08-30T06:32:43.490Z,23.42
2022-08-30T06:33:29.998Z,23.40
2022-08-30T06:34:55.076Z,23.37
2022-08-30T06:35:59.127Z,23.36
2022-08-30T06:36:44.093Z,23.35
2022-08-30T06:37:31.966Z,23.33
2022-08-30T06:38:16.113Z,23.30
2022-08-30T06:39:03.898Z,23.29
2022-08-30T06:39:50.256Z,23.28
2022-08-30T06:40:35.483Z,23.27
2022-08-30T06:41:20.969Z,23.27
2022-08-30T06:42:06.572Z,23.26
2022-08-30T06:42:50.498Z,23.27
2022-08-30T06:43:46.767Z,23.27
2022-08-30T06:44:33.363Z,23.27
2022-08-30T06:45:18.761Z,23.28
2022-08-30T06:46:22.605Z,23.27
2022-08-30T06:47:51.906Z,23.29
2022-08-30T06:48:38.006Z,23.28
2022-08-30T06:49:27.758Z,23.26
2022-08-30T06:50:32.361Z,23.24
2022-08-30T06:51:25.124Z,23.26
2022-08-30T06:52:38.110Z,23.22
2022-08-30T06:54:22.415Z,23.23
2022-08-30T06:55:38.898Z,23.21
2022-08-30T06:56:58.104Z,23.19
2022-08-30T06:57:44.593Z,23.19
2022-08-30T06:58:36.529Z,23.16
2022-08-30T06:59:25.613Z,23.18
2022-08-30T07:00:38.684Z,23.17
2022-08-30T07:02:33.991Z,23.16
2022-08-30T07:03:20.651Z,23.16
2022-08-30T07:04:03.519Z,23.17
2022-08-30T07:04:50.554Z,23.17
2022-08-30T07:05:35.461Z,23.17
2022-08-30T07:06:26.193Z,23.17
2022-08-30T07:07:33.591Z,23.19
2022-08-30T07:08:20.993Z,23.19
2022-08-30T07:09:24.332Z,23.21
2022-08-30T07:10:29.125Z,23.21
2022-08-30T07:11:17.196Z,23.23
2022-08-30T07:12:16.603Z,23.23
2022-08-30T07:13:05.170Z,23.26
2022-08-30T07:13:53.135Z,23.25
2022-08-30T07:14:38.427Z,23.25
2022-08-30T07:15:28.680Z,23.24
2022-08-30T07:16:22.554Z,23.21
2022-08-30T07:17:10.763Z,23.22
2022-08-30T07:17:59.828Z,23.22
2022-08-30T07:18:49.836Z,23.22
2022-08-30T07:19:32.782Z,23.23
2022-08-30T07:21:12.759Z,23.22
2022-08-30T07:22:00.310Z,23.20
2022-08-30T07:22:57.545Z,23.21
2022-08-30T07:25:37.967Z,23.23
2022-08-30T07:26:26.505Z,23.24
2022-08-30T07:27:13.349Z,23.25
2022-08-30T07:29:07.900Z,23.22
2022-08-30T07:30:06.925Z,23.22
2022-08-30T07:32:55.346Z,23.19
2022-08-30T07:34:14.931Z,23.20
2022-08-30T07:35:00.497Z,23.20
2022-08-30T07:36:24.810Z,23.19
2022-08-30T07:37:11.434Z,23.18
2022-08-30T07:38:08.943Z,23.17
2022-08-30T07:39:47.745Z,23.24
2022-08-30T07:40:40.280Z,23.30
2022-08-30T07:41:36.844Z,23.33
2022-08-30T07:42:26.253Z,23.33
2022-08-30T07:43:23.219Z,23.31
2022-08-30T07:44:00.193Z,23.30
2022-08-30T07:44:36.318Z,23.30
2022-08-30T07:45:12.741Z,23.30
2022-08-30T07:45:49.584Z,23.30
2022-08-30T07:46:26.333Z,23.30
2022-08-30T07:47:02.780Z,23.30
2022-08-30T07:47:38.633Z,23.31
2022-08-30T07:48:14.637Z,23.32
2022-08-30T07:48:51.347Z,23.34
2022-08-30T07:49:28.217Z,23.36
2022-08-30T07:50:04.992Z,23.36
2022-08-30T07:50:43.029Z,23.36
2022-08-30T07:51:24.532Z,23.38
2022-08-30T07:52:03.476Z,23.42
2022-08-30T07:52:42.086Z,23.46
2022-08-30T07:53:17.878Z,23.45
2022-08-30T07:53:54.391Z,23.46
2022-08-30T07:54:31.472Z,23.46
2022-08-30T07:55:08.446Z,23.47
2022-08-30T07:55:44.636Z,23.49
2022-08-30T07:56:21.260Z,23.52
2022-08-30T07:56:58.216Z,23.51
2022-08-30T07:57:35.526Z,23.52
2022-08-30T07:58:11.902Z,23.49
2022-08-30T07:58:47.629Z,23.51
2022-08-30T07:59:24.215Z,23.47
2022-08-30T08:00:01.316Z,23.45
2022-08-30T08:00:37.899Z,23.44
2022-08-30T08:01:14.234Z,23.44
2022-08-30T08:01:51.013Z,23.45
2022-08-30T08:02:27.882Z,23.43
2022-08-30T08:03:04.220Z,23.42
2022-08-30T08:03:39.404Z,23.40
2022-08-30T08:04:17.170Z,23.41
2022-08-30T08:04:54.124Z,23.41
2022-08-30T08:05:30.471Z,23.42
2022-08-30T08:06:07.274Z,23.41
2022-08-30T08:06:44.015Z,23.41
2022-08-30T08:07:24.609Z,23.42
2022-08-30T08:08:02.667Z,23.47
2022-08-30T08:08:41.873Z,23.52
2022-08-30T08:09:17.393Z,23.52
2022-08-30T08:09:53.906Z,23.50
2022-08-30T08:10:30.510Z,23.48
2022-08-30T08:11:06.880Z,23.48
2022-08-30T08:11:43.409Z,23.47
2022-08-30T08:12:19.923Z,23.48
2022-08-30T08:12:56.392Z,23.48
2022-08-30T08:13:47.281Z,23.49
2022-08-30T08:14:29.412Z,23.44
2022-08-30T08:15:08.710Z,23.44
2022-08-30T08:15:44.606Z,23.44
2022-08-30T08:16:21.625Z,23.48
2022-08-30T08:16:58.754Z,23.52
2022-08-30T08:17:35.455Z,23.55
2022-08-30T08:18:12.105Z,23.57
2022-08-30T08:18:48.474Z,23.60
2022-08-30T08:19:25.074Z,23.61
2022-08-30T08:20:01.590Z,23.60
2022-08-30T08:20:36.909Z,23.58
2022-08-30T08:21:14.081Z,23.54
2022-08-30T08:21:59.409Z,23.53
2022-08-30T08:22:48.032Z,23.49
2022-08-30T08:23:25.043Z,23.47
2022-08-30T08:24:01.079Z,23.47
2022-08-30T08:24:36.786Z,23.47
2022-08-30T08:25:13.716Z,23.48
2022-08-30T08:25:49.681Z,23.49
2022-08-30T08:26:26.239Z,23.48
2022-08-30T08:27:02.441Z,23.46
2022-08-30T08:27:38.293Z,23.45
2022-08-30T08:28:14.997Z,23.43
2022-08-30T08:28:51.511Z,23.42
2022-08-30T08:29:27.159Z,23.40
2022-08-30T08:30:03.957Z,23.41
2022-08-30T08:30:40.941Z,23.39
2022-08-30T08:31:18.243Z,23.37
2022-08-30T08:31:55.217Z,23.37
2022-08-30T08:32:31.440Z,23.35
2022-08-30T08:33:08.298Z,23.34
2022-08-30T08:33:44.513Z,23.35
2022-08-30T08:34:20.148Z,23.34
2022-08-30T08:34:56.537Z,23.34
2022-08-30T08:35:32.093Z,23.35
2022-08-30T08:36:09.724Z,23.34
2022-08-30T08:36:46.101Z,23.34
2022-08-30T08:37:26.713Z,23.33
2022-08-30T08:38:03.128Z,23.32
2022-08-30T08:38:40.183Z,23.31
2022-08-30T08:39:16.528Z,23.30
2022-08-30T08:39:52.251Z,23.31
2022-08-30T08:40:28.623Z,23.31
2022-08-30T08:41:05.333Z,23.31
2022-08-30T08:41:42.142Z,23.31
2022-08-30T08:42:18.198Z,23.30
2022-08-30T08:42:54.330Z,23.29
2022-08-30T08:43:31.137Z,23.30
2022-08-30T08:44:10.835Z,23.30
2022-08-30T08:44:56.212Z,23.29
2022-08-30T08:45:55.480Z,23.28
2022-08-30T08:46:58.594Z,23.29
2022-08-30T08:47:54.600Z,23.28
2022-08-30T08:48:59.079Z,23.31
2022-08-30T08:50:47.201Z,23.31
2022-08-30T08:51:40.775Z,23.31
2022-08-30T08:52:28.824Z,23.30
2022-08-30T08:53:45.142Z,23.29
2022-08-30T08:54:22.030Z,23.30
2022-08-30T08:55:24.882Z,23.30
2022-08-30T08:56:28.383Z,23.30
2022-08-30T08:57:17.044Z,23.30
2022-08-30T08:58:05.667Z,23.31
2022-08-30T08:58:52.295Z,23.32
2022-08-30T08:59:35.995Z,23.31
2022-08-30T09:00:20.572Z,23.32
2022-08-30T09:01:05.711Z,23.33
2022-08-30T09:01:51.163Z,23.31
2022-08-30T09:02:41.423Z,23.31
2022-08-30T09:03:32.299Z,23.29
2022-08-30T09:04:26.293Z,23.30
2022-08-30T09:05:23.679Z,23.30
2022-08-30T09:06:09.031Z,23.31
2022-08-30T09:09:02.567Z,23.35
2022-08-30T09:11:07.137Z,23.34
2022-08-30T09:11:55.136Z,23.33
2022-08-30T09:12:59.350Z,23.34
2022-08-30T09:13:51.542Z,23.33
2022-08-30T09:14:38.854Z,23.33
2022-08-30T09:15:26.575Z,23.32
2022-08-30T09:16:08.828Z,23.32
2022-08-30T09:17:55.444Z,23.33
2022-08-30T09:19:15.914Z,23.34
2022-08-30T09:21:20.606Z,23.33
2022-08-30T09:22:05.461Z,23.35
2022-08-30T09:22:54.277Z,23.33
2022-08-30T09:23:43.490Z,23.35
2022-08-30T09:24:40.371Z,23.33
2022-08-30T09:25:23.774Z,23.32
2022-08-30T09:26:10.943Z,23.33
2022-08-30T09:26:58.434Z,23.33
2022-08-30T09:27:44.385Z,23.33
2022-08-30T09:28:33.065Z,23.33
2022-08-30T09:29:19.962Z,23.33
2022-08-30T09:30:07.986Z,23.34
2022-08-30T09:31:11.913Z,23.34
2022-08-30T09:32:25.425Z,23.33
2022-08-30T09:33:00.474Z,23.33
2022-08-30T09:34:11.307Z,23.34
2022-08-30T09:35:52.172Z,23.34
2022-08-30T09:36:33.160Z,23.34
2022-08-30T09:37:09.963Z,23.36
2022-08-30T09:37:48.657Z,23.35
2022-08-30T09:38:30.023Z,23.35
2022-08-30T09:39:11.342Z,23.37
2022-08-30T09:39:47.633Z,23.41
2022-08-30T09:40:23.716Z,23.44
2022-08-30T09:41:00.639Z,23.44
2022-08-30T09:41:37.457Z,23.45
2022-08-30T09:42:16.644Z,23.48
2022-08-30T09:42:57.495Z,23.47
2022-08-30T09:43:38.911Z,23.50
2022-08-30T09:44:18.236Z,23.52
2022-08-30T09:44:54.102Z,23.56
2022-08-30T09:45:29.928Z,23.58
2022-08-30T09:46:06.494Z,23.59
2022-08-30T09:46:42.820Z,23.60
2022-08-30T09:47:23.536Z,23.59
2022-08-30T09:48:00.165Z,23.59
2022-08-30T09:48:37.302Z,23.57
2022-08-30T09:49:14.574Z,23.57
2022-08-30T09:49:50.968Z,23.57
2022-08-30T09:50:27.799Z,23.55
2022-08-30T09:51:03.305Z,23.55
2022-08-30T09:51:40.941Z,23.55
2022-08-30T09:52:17.622Z,23.54
2022-08-30T09:52:55.645Z,23.54
2022-08-30T09:53:35.210Z,23.55
2022-08-30T09:54:17.643Z,23.54
2022-08-30T09:54:53.735Z,23.54
2022-08-30T09:55:31.176Z,23.53
2022-08-30T09:56:07.406Z,23.53
2022-08-30T09:56:45.678Z,23.52
2022-08-30T09:57:33.741Z,23.53
2022-08-30T09:58:09.664Z,23.53
2022-08-30T09:58:47.809Z,23.54
2022-08-30T09:59:25.668Z,23.54
2022-08-30T10:00:01.572Z,23.54
2022-08-30T10:00:39.504Z,23.56
2022-08-30T10:01:15.646Z,23.55
2022-08-30T10:01:51.519Z,23.55
2022-08-30T10:02:28.229Z,23.57
2022-08-30T10:03:06.595Z,23.56
2022-08-30T10:03:43.829Z,23.55
2022-08-30T10:04:20.386Z,23.57
2022-08-30T10:04:59.266Z,23.58
2022-08-30T10:05:39.662Z,23.61
2022-08-30T10:06:16.019Z,23.62
2022-08-30T10:06:51.671Z,23.63
2022-08-30T10:09:19.987Z,23.63
2022-08-30T10:09:57.164Z,23.63
2022-08-30T10:10:33.304Z,23.62
2022-08-30T10:11:09.901Z,23.62
2022-08-30T10:11:45.764Z,23.62
2022-08-30T10:12:22.751Z,23.63
2022-08-30T10:12:59.790Z,23.61
2022-08-30T10:13:36.778Z,23.61
2022-08-30T10:14:12.759Z,23.61
2022-08-30T10:14:48.716Z,23.62
2022-08-30T10:15:25.773Z,23.62
2022-08-30T10:16:01.892Z,23.62
2022-08-30T10:16:37.511Z,23.62
2022-08-30T10:17:13.911Z,23.62
2022-08-30T10:17:50.379Z,23.62
2022-08-30T10:18:26.429Z,23.62
2022-08-30T10:19:04.304Z,23.64
2022-08-30T10:19:41.897Z,23.64
2022-08-30T10:20:18.338Z,23.64
2022-08-30T10:20:54.237Z,23.65
2022-08-30T10:21:31.519Z,23.65
2022-08-30T10:22:13.163Z,23.64
2022-08-30T10:22:55.740Z,23.62
2022-08-30T10:23:35.476Z,23.63